createdAt,value
2018-12-31T00:02:07.943Z,5.10
2018-12-31T00:04:36.339Z,5.10
2018-12-31T00:07:04.830Z,5.10
2018-12-31T00:09:33.303Z,5.10
2018-12-31T00:12:01.748Z,5.10
2018-12-31T00:14:30.148Z,5.10
2018-12-31T00:16:58.565Z,5.00
2018-12-31T00:19:26.990Z,5.10
2018-12-31T00:21:55.395Z,5.10
2018-12-31T00:24:23.802Z,5.10
2018-12-31T00:26:52.250Z,5.10
2018-12-31T00:29:20.633Z,5.00
2018-12-31T00:31:49.082Z,5.00
2018-12-31T00:34:17.510Z,5.00
2018-12-31T00:36:45.962Z,5.00
2018-12-31T00:39:14.365Z,5.00
2018-12-31T00:41:42.745Z,5.00
2018-12-31T00:44:11.193Z,5.00
2018-12-31T00:46:39.581Z,5.00
2018-12-31T00:49:08.000Z,5.00
2018-12-31T00:51:36.434Z,5.00
2018-12-31T00:54:04.847Z,5.00
2018-12-31T00:56:33.281Z,5.00
2018-12-31T00:59:01.688Z,5.00
2018-12-31T01:01:30.136Z,5.00
2018-12-31T01:03:58.537Z,5.00
2018-12-31T01:06:27.210Z,5.00
2018-12-31T01:08:55.621Z,5.00
2018-12-31T01:11:24.022Z,5.00
2018-12-31T01:13:52.450Z,5.00
2018-12-31T01:16:20.858Z,5.00
2018-12-31T01:18:49.305Z,5.00
2018-12-31T01:21:17.700Z,5.00
2018-12-31T01:23:46.128Z,4.90
2018-12-31T01:26:14.542Z,4.90
2018-12-31T01:28:42.970Z,4.90
2018-12-31T01:31:11.373Z,4.90
2018-12-31T01:33:39.788Z,4.90
2018-12-31T01:36:08.491Z,4.90
2018-12-31T01:38:37.177Z,4.90
2018-12-31T01:41:05.602Z,4.90
2018-12-31T01:43:33.997Z,4.90
2018-12-31T01:46:02.443Z,4.90
2018-12-31T01:48:30.829Z,4.90
2018-12-31T01:50:59.309Z,4.80
2018-12-31T01:53:27.772Z,4.80
2018-12-31T01:55:56.170Z,4.80
2018-12-31T01:58:24.612Z,4.80
2018-12-31T02:00:53.069Z,4.90
2018-12-31T02:03:21.462Z,4.80
2018-12-31T02:05:49.869Z,4.80
2018-12-31T02:08:18.325Z,4.80
2018-12-31T02:10:46.753Z,4.80
2018-12-31T02:13:15.217Z,4.70
2018-12-31T02:15:43.664Z,4.70
2018-12-31T02:18:12.096Z,4.70
2018-12-31T02:20:40.497Z,4.80
2018-12-31T02:23:09.249Z,4.70
2018-12-31T02:25:37.666Z,4.70
2018-12-31T02:28:06.066Z,4.80
2018-12-31T02:30:34.588Z,4.70
2018-12-31T02:33:03.026Z,4.70
2018-12-31T02:35:31.462Z,4.70
2018-12-31T02:37:59.861Z,4.70
2018-12-31T02:40:28.294Z,4.70
2018-12-31T02:42:56.696Z,4.70
2018-12-31T02:45:25.129Z,4.70
2018-12-31T02:47:53.529Z,4.70
2018-12-31T02:50:21.975Z,4.70
2018-12-31T02:52:50.374Z,4.80
2018-12-31T02:55:18.798Z,4.70
2018-12-31T02:57:47.241Z,4.70
2018-12-31T03:00:15.708Z,4.70
2018-12-31T03:02:44.113Z,4.70
2018-12-31T03:05:12.513Z,4.70
2018-12-31T03:07:40.918Z,4.70
2018-12-31T03:10:09.370Z,4.70
2018-12-31T03:12:37.776Z,4.70
2018-12-31T03:15:06.664Z,4.70
2018-12-31T03:17:35.068Z,4.70
2018-12-31T03:20:03.531Z,4.70
2018-12-31T03:22:31.948Z,4.70
2018-12-31T03:25:00.340Z,4.70
2018-12-31T03:27:28.748Z,4.70
2018-12-31T03:29:57.189Z,4.70
2018-12-31T03:32:25.629Z,4.60
2018-12-31T03:34:54.104Z,4.60
2018-12-31T03:37:22.503Z,4.60
2018-12-31T03:39:51.205Z,4.60
2018-12-31T03:42:19.615Z,4.70
2018-12-31T03:44:48.360Z,4.70
2018-12-31T03:47:16.769Z,4.80
2018-12-31T03:49:45.171Z,4.80
2018-12-31T03:52:13.577Z,4.80
2018-12-31T03:54:41.983Z,4.80
2018-12-31T03:57:10.408Z,4.80
2018-12-31T03:59:39.146Z,4.80
2018-12-31T04:02:07.566Z,4.80
2018-12-31T04:04:36.017Z,4.80
2018-12-31T04:07:04.507Z,4.90
2018-12-31T04:09:34.964Z,4.90
2018-12-31T04:12:03.595Z,4.90
2018-12-31T04:14:31.994Z,4.80
2018-12-31T04:17:00.419Z,4.70
2018-12-31T04:19:28.817Z,4.70
2018-12-31T04:21:57.234Z,4.70
2018-12-31T04:24:25.629Z,4.80
2018-12-31T04:26:54.061Z,4.80
2018-12-31T04:29:22.873Z,4.80
2018-12-31T04:31:51.257Z,4.80
2018-12-31T04:34:19.670Z,4.80
2018-12-31T04:36:48.075Z,4.80
2018-12-31T04:39:17.026Z,4.80
2018-12-31T04:41:45.425Z,4.80
2018-12-31T04:44:13.850Z,4.80
2018-12-31T04:46:42.247Z,4.80
2018-12-31T04:49:10.670Z,4.80
2018-12-31T04:51:39.068Z,4.80
2018-12-31T04:54:07.504Z,4.80
2018-12-31T04:56:35.884Z,4.80
2018-12-31T04:59:04.307Z,4.80
2018-12-31T05:01:32.704Z,4.80
2018-12-31T05:04:01.109Z,4.80
2018-12-31T05:06:29.493Z,4.80
2018-12-31T05:08:58.005Z,4.80
2018-12-31T05:11:26.429Z,4.80
2018-12-31T05:13:54.898Z,4.80
2018-12-31T05:16:23.318Z,4.80
2018-12-31T05:18:51.723Z,4.80
2018-12-31T05:21:20.162Z,4.90
2018-12-31T05:23:48.570Z,4.80
2018-12-31T05:26:17.010Z,4.80
2018-12-31T05:28:45.729Z,4.90
2018-12-31T05:31:14.159Z,4.80
2018-12-31T05:33:42.602Z,4.90
2018-12-31T05:36:11.021Z,4.90
2018-12-31T05:38:39.436Z,4.90
2018-12-31T05:41:07.845Z,4.90
2018-12-31T05:43:36.285Z,4.90
2018-12-31T05:46:04.693Z,4.90
2018-12-31T05:48:33.180Z,4.90
2018-12-31T05:51:01.601Z,4.80
2018-12-31T05:53:29.994Z,4.70
2018-12-31T05:55:58.413Z,4.70
2018-12-31T05:58:26.809Z,4.70
2018-12-31T06:00:55.515Z,4.70
2018-12-31T06:03:23.922Z,4.80
2018-12-31T06:05:52.357Z,4.80
2018-12-31T06:08:20.785Z,4.80
2018-12-31T06:10:49.221Z,4.80
2018-12-31T06:13:17.612Z,4.80
2018-12-31T06:15:46.017Z,4.90
2018-12-31T06:18:14.510Z,4.90
2018-12-31T06:20:42.905Z,4.90
2018-12-31T06:23:11.667Z,4.90
2018-12-31T06:25:40.096Z,4.90
2018-12-31T06:28:09.636Z,4.90
2018-12-31T06:30:38.042Z,4.90
2018-12-31T06:33:06.713Z,4.90
2018-12-31T06:35:35.164Z,4.90
2018-12-31T06:38:03.617Z,4.90
2018-12-31T06:40:32.485Z,4.90
2018-12-31T06:43:00.897Z,4.90
2018-12-31T06:45:29.321Z,4.90
2018-12-31T06:47:57.728Z,4.90
2018-12-31T06:50:26.140Z,4.90
2018-12-31T06:52:54.536Z,4.90
2018-12-31T06:55:22.938Z,4.90
2018-12-31T06:57:51.721Z,4.90
2018-12-31T07:00:20.159Z,4.90
2018-12-31T07:02:48.553Z,4.90
2018-12-31T07:05:16.978Z,4.90
2018-12-31T07:07:45.380Z,4.80
2018-12-31T07:10:13.792Z,4.80
2018-12-31T07:12:42.196Z,4.80
2018-12-31T07:15:10.626Z,4.80
2018-12-31T07:17:39.029Z,4.80
2018-12-31T07:20:07.953Z,4.80
2018-12-31T07:22:36.346Z,4.80
2018-12-31T07:25:05.149Z,4.80
2018-12-31T07:27:33.938Z,4.70
2018-12-31T07:30:02.345Z,4.80
2018-12-31T07:32:30.747Z,4.80
2018-12-31T07:34:59.133Z,4.80
2018-12-31T07:37:29.211Z,4.80
2018-12-31T07:39:57.629Z,4.80
2018-12-31T07:42:26.053Z,4.80
2018-12-31T07:44:54.458Z,4.90
2018-12-31T07:47:22.893Z,4.90
2018-12-31T07:49:51.300Z,4.90
2018-12-31T07:52:19.717Z,4.90
2018-12-31T07:54:48.111Z,4.90
2018-12-31T07:57:16.560Z,4.90
2018-12-31T07:59:44.981Z,4.90
2018-12-31T08:02:13.834Z,4.80
2018-12-31T08:04:42.317Z,4.80
2018-12-31T08:07:10.725Z,4.80
2018-12-31T08:09:39.227Z,4.80
2018-12-31T08:12:07.637Z,4.80
2018-12-31T08:14:36.019Z,4.80
2018-12-31T08:17:04.421Z,4.80
2018-12-31T08:19:32.817Z,4.80
2018-12-31T08:22:01.231Z,4.80
2018-12-31T08:24:29.625Z,4.70
2018-12-31T08:26:58.040Z,4.70
2018-12-31T08:29:26.461Z,4.80
2018-12-31T08:31:54.919Z,4.80
2018-12-31T08:34:23.345Z,4.80
2018-12-31T08:36:51.747Z,4.70
2018-12-31T08:39:20.178Z,4.80
2018-12-31T08:41:48.577Z,4.80
2018-12-31T08:44:16.978Z,4.80
2018-12-31T08:46:45.673Z,4.80
2018-12-31T08:49:14.081Z,4.90
2018-12-31T08:51:42.504Z,4.80
2018-12-31T08:54:10.939Z,4.80
2018-12-31T08:56:39.420Z,4.80
2018-12-31T08:59:07.841Z,4.80
2018-12-31T09:01:36.237Z,4.80
2018-12-31T09:04:04.730Z,4.80
2018-12-31T09:06:33.129Z,4.80
2018-12-31T09:09:01.540Z,4.90
2018-12-31T09:11:29.953Z,4.80
2018-12-31T09:13:58.369Z,4.80
2018-12-31T09:16:26.779Z,4.70
2018-12-31T09:18:55.189Z,4.80
2018-12-31T09:21:23.595Z,4.80
2018-12-31T09:23:52.021Z,4.80
2018-12-31T09:26:20.770Z,4.80
2018-12-31T09:28:49.213Z,4.80
2018-12-31T09:31:17.635Z,4.80
2018-12-31T09:33:46.066Z,4.80
2018-12-31T09:36:14.472Z,4.80
2018-12-31T09:38:43.177Z,4.80
2018-12-31T09:41:11.582Z,4.90
2018-12-31T09:43:40.004Z,4.90
2018-12-31T09:46:08.403Z,4.90
2018-12-31T09:48:36.808Z,5.00
2018-12-31T09:51:05.243Z,5.00
2018-12-31T09:53:33.652Z,4.90
2018-12-31T09:56:02.133Z,5.00
2018-12-31T09:58:30.547Z,5.00
2018-12-31T10:00:58.987Z,5.00
2018-12-31T10:03:27.380Z,5.00
2018-12-31T10:05:55.788Z,5.00
2018-12-31T10:08:24.243Z,5.10
2018-12-31T10:10:52.649Z,5.00
2018-12-31T10:13:21.461Z,5.10
2018-12-31T10:15:49.855Z,5.10
2018-12-31T10:18:18.253Z,5.10
2018-12-31T10:20:46.980Z,5.20
2018-12-31T10:23:15.394Z,5.20
2018-12-31T10:25:43.813Z,5.20
2018-12-31T10:28:12.257Z,5.20
2018-12-31T10:30:40.668Z,5.20
2018-12-31T10:33:09.483Z,5.30
2018-12-31T10:35:37.922Z,5.30
2018-12-31T10:38:06.420Z,5.30
2018-12-31T10:40:34.890Z,5.30
2018-12-31T10:43:03.277Z,5.40
2018-12-31T10:45:31.725Z,5.40
2018-12-31T10:48:00.153Z,5.40
2018-12-31T10:50:28.709Z,5.40
2018-12-31T10:52:57.100Z,5.40
2018-12-31T10:55:25.510Z,5.50
2018-12-31T10:57:53.971Z,5.50
2018-12-31T11:00:22.803Z,5.60
2018-12-31T11:02:51.197Z,5.60
2018-12-31T11:05:19.596Z,5.60
2018-12-31T11:07:47.995Z,5.50
2018-12-31T11:10:16.424Z,5.60
2018-12-31T11:12:44.821Z,5.50
2018-12-31T11:15:13.255Z,5.50
2018-12-31T11:17:41.656Z,5.50
2018-12-31T11:20:10.064Z,5.50
2018-12-31T11:22:38.717Z,5.50
2018-12-31T11:25:07.235Z,5.60
2018-12-31T11:27:35.622Z,5.60
2018-12-31T11:30:04.152Z,5.60
2018-12-31T11:32:32.561Z,5.60
2018-12-31T11:35:00.952Z,5.60
2018-12-31T11:37:34.565Z,5.70
2018-12-31T11:39:59.753Z,5.70
2018-12-31T11:42:28.566Z,5.70
2018-12-31T11:44:57.311Z,5.70
2018-12-31T11:47:25.713Z,5.70
2018-12-31T11:49:54.114Z,5.60
2018-12-31T11:52:22.524Z,5.70
2018-12-31T11:54:50.943Z,5.60
2018-12-31T11:57:19.325Z,5.70
2018-12-31T11:59:47.733Z,5.70
2018-12-31T12:02:23.363Z,5.80
2018-12-31T12:04:46.757Z,5.80
2018-12-31T12:07:15.643Z,5.80
2018-12-31T12:09:44.024Z,5.90
2018-12-31T12:12:12.497Z,5.90
2018-12-31T12:14:40.917Z,5.80
2018-12-31T12:17:09.419Z,5.90
2018-12-31T12:19:37.818Z,5.90
2018-12-31T12:22:06.256Z,5.90
2018-12-31T12:24:34.653Z,6.00
2018-12-31T12:27:03.365Z,6.00
2018-12-31T12:29:31.790Z,6.00
2018-12-31T12:32:00.207Z,6.00
2018-12-31T12:34:28.618Z,6.00
2018-12-31T12:36:57.079Z,6.00
2018-12-31T12:39:25.957Z,6.00
2018-12-31T12:41:54.373Z,6.00
2018-12-31T12:44:22.857Z,6.00
2018-12-31T12:46:51.353Z,6.10
2018-12-31T12:49:19.839Z,6.10
2018-12-31T12:51:48.659Z,6.10
2018-12-31T12:54:17.056Z,6.20
2018-12-31T12:56:45.590Z,6.20
2018-12-31T12:59:14.029Z,6.20
2018-12-31T13:01:43.499Z,6.20
2018-12-31T13:04:11.890Z,6.20
2018-12-31T13:06:40.430Z,6.30
2018-12-31T13:09:08.829Z,6.30
2018-12-31T13:11:37.382Z,6.30
2018-12-31T13:14:05.776Z,6.30
2018-12-31T13:16:34.226Z,6.30
2018-12-31T13:19:02.623Z,6.30
2018-12-31T13:21:31.070Z,6.40
2018-12-31T13:23:59.534Z,6.30
2018-12-31T13:26:28.370Z,6.40
2018-12-31T13:28:56.764Z,6.40
2018-12-31T13:31:25.237Z,6.30
2018-12-31T13:33:53.644Z,6.30
2018-12-31T13:36:22.172Z,6.40
2018-12-31T13:38:50.558Z,6.40
2018-12-31T13:41:19.020Z,6.40
2018-12-31T13:43:47.511Z,6.40
2018-12-31T13:46:15.942Z,6.40
2018-12-31T13:48:44.374Z,6.40
2018-12-31T13:51:12.796Z,6.40
2018-12-31T13:53:41.198Z,6.40
2018-12-31T13:56:10.016Z,6.40
2018-12-31T13:58:38.416Z,6.40
2018-12-31T14:01:07.745Z,6.40
2018-12-31T14:03:36.186Z,6.40
2018-12-31T14:06:04.571Z,6.40
2018-12-31T14:08:33.359Z,6.40
2018-12-31T14:11:01.864Z,6.40
2018-12-31T14:13:30.363Z,6.40
2018-12-31T14:15:58.886Z,6.40
2018-12-31T14:18:27.308Z,6.40
2018-12-31T14:20:56.105Z,6.40
2018-12-31T14:23:24.619Z,6.40
2018-12-31T14:25:53.045Z,6.40
2018-12-31T14:28:21.504Z,6.40
2018-12-31T14:30:49.919Z,6.50
2018-12-31T14:33:18.621Z,6.50
2018-12-31T14:35:47.065Z,6.50
2018-12-31T14:38:15.498Z,6.60
2018-12-31T14:40:43.928Z,6.60
2018-12-31T14:43:12.361Z,6.60
2018-12-31T14:45:40.762Z,6.70
2018-12-31T14:48:09.189Z,6.60
2018-12-31T14:50:37.669Z,6.60
2018-12-31T14:53:06.147Z,6.70
2018-12-31T14:55:34.549Z,6.70
2018-12-31T14:58:03.041Z,6.70
2018-12-31T15:00:31.483Z,6.70
2018-12-31T15:03:00.042Z,6.70
2018-12-31T15:05:28.481Z,6.70
2018-12-31T15:07:56.900Z,6.70
2018-12-31T15:10:25.297Z,6.70
2018-12-31T15:12:53.912Z,6.70
2018-12-31T15:15:22.630Z,6.70
2018-12-31T15:17:51.164Z,6.70
2018-12-31T15:20:19.561Z,6.70
2018-12-31T15:22:48.009Z,6.70
2018-12-31T15:25:16.819Z,6.70
2018-12-31T15:27:45.269Z,6.70
2018-12-31T15:30:13.742Z,6.60
2018-12-31T15:32:42.162Z,6.60
2018-12-31T15:35:10.887Z,6.60
2018-12-31T15:37:39.814Z,6.70
2018-12-31T15:40:08.902Z,6.70
2018-12-31T15:42:37.372Z,6.70
2018-12-31T15:45:06.676Z,6.70
2018-12-31T15:47:35.182Z,6.70
2018-12-31T15:50:04.062Z,6.70
2018-12-31T15:52:32.486Z,6.70
2018-12-31T15:55:00.893Z,6.70
2018-12-31T15:57:29.300Z,6.70
2018-12-31T15:59:57.748Z,6.70
2018-12-31T16:02:26.246Z,6.70
2018-12-31T16:04:54.663Z,6.70
2018-12-31T16:07:23.085Z,6.70
2018-12-31T16:09:51.534Z,6.70
2018-12-31T16:12:19.968Z,6.60
2018-12-31T16:14:48.406Z,6.60
2018-12-31T16:17:16.907Z,6.60
2018-12-31T16:19:45.348Z,6.60
2018-12-31T16:22:13.809Z,6.70
2018-12-31T16:24:42.590Z,6.70
2018-12-31T16:27:10.997Z,6.70
2018-12-31T16:29:39.926Z,6.70
2018-12-31T16:32:08.417Z,6.60
2018-12-31T16:34:36.849Z,6.70
2018-12-31T16:37:05.249Z,6.60
2018-12-31T16:39:33.748Z,6.60
2018-12-31T16:42:02.240Z,6.60
2018-12-31T16:44:30.722Z,6.70
2018-12-31T16:46:59.129Z,6.70
2018-12-31T16:49:27.594Z,6.70
2018-12-31T16:52:02.495Z,6.70
2018-12-31T16:54:26.170Z,6.70
2018-12-31T16:56:54.920Z,6.70
2018-12-31T16:59:23.409Z,6.70
2018-12-31T17:01:51.886Z,6.70
2018-12-31T17:04:20.403Z,6.70
2018-12-31T17:06:48.862Z,6.80
2018-12-31T17:09:17.394Z,6.80
2018-12-31T17:11:45.809Z,6.80
2018-12-31T17:14:14.250Z,6.80
2018-12-31T17:16:42.662Z,6.80
2018-12-31T17:19:11.089Z,6.80
2018-12-31T17:21:39.497Z,6.80
2018-12-31T17:24:07.922Z,6.80
2018-12-31T17:26:36.366Z,6.80
2018-12-31T17:29:04.852Z,6.80
2018-12-31T17:31:33.337Z,6.80
2018-12-31T17:34:01.782Z,6.80
2018-12-31T17:36:30.234Z,6.90
2018-12-31T17:38:59.654Z,6.90
2018-12-31T17:41:28.087Z,6.90
2018-12-31T17:43:56.895Z,6.90
2018-12-31T17:46:25.301Z,7.00
2018-12-31T17:48:54.453Z,7.00
2018-12-31T17:51:22.853Z,7.00
2018-12-31T17:53:51.285Z,7.00
2018-12-31T17:56:19.690Z,7.00
2018-12-31T17:58:48.132Z,7.00
2018-12-31T18:01:17.168Z,7.00
2018-12-31T18:03:45.605Z,7.10
2018-12-31T18:06:17.876Z,7.00
2018-12-31T18:08:49.410Z,7.00
2018-12-31T18:11:19.050Z,7.00
2018-12-31T18:13:51.637Z,7.00
2018-12-31T18:16:21.838Z,7.00
2018-12-31T18:18:51.794Z,7.00
2018-12-31T18:21:24.434Z,7.00
2018-12-31T18:23:56.335Z,7.00
2018-12-31T18:26:25.047Z,7.00
2018-12-31T18:28:53.552Z,7.00
2018-12-31T18:31:21.985Z,7.10
2018-12-31T18:33:50.439Z,7.10
2018-12-31T18:36:19.392Z,7.10
2018-12-31T18:38:47.896Z,7.00
2018-12-31T18:41:16.305Z,7.00
2018-12-31T18:43:44.701Z,7.00
2018-12-31T18:46:13.128Z,7.00
2018-12-31T18:48:41.628Z,6.90
2018-12-31T18:51:10.605Z,7.00
2018-12-31T18:53:39.731Z,7.00
2018-12-31T18:56:08.287Z,7.00
2018-12-31T18:58:36.696Z,7.00
2018-12-31T19:01:05.100Z,7.10
2018-12-31T19:03:33.520Z,7.10
2018-12-31T19:06:01.985Z,7.10
2018-12-31T19:08:30.385Z,7.10
2018-12-31T19:10:58.840Z,7.00
2018-12-31T19:13:27.240Z,6.90
2018-12-31T19:15:56.034Z,6.90
2018-12-31T19:18:24.478Z,6.90
2018-12-31T19:20:52.909Z,6.80
2018-12-31T19:23:21.312Z,6.80
2018-12-31T19:25:49.743Z,6.80
2018-12-31T19:28:18.149Z,6.90
2018-12-31T19:30:46.603Z,6.80
2018-12-31T19:33:15.097Z,6.80
2018-12-31T19:35:43.503Z,6.80
2018-12-31T19:38:11.950Z,6.80
2018-12-31T19:40:40.386Z,6.80
2018-12-31T19:43:08.834Z,6.80
2018-12-31T19:45:37.604Z,6.80
2018-12-31T19:48:06.008Z,6.80
2018-12-31T19:50:34.421Z,6.80
2018-12-31T19:53:02.830Z,6.70
2018-12-31T19:55:31.625Z,6.80
2018-12-31T19:58:00.027Z,6.70
2018-12-31T20:00:28.464Z,6.70
2018-12-31T20:02:56.906Z,6.70
2018-12-31T20:05:25.717Z,6.80
2018-12-31T20:07:54.178Z,6.70
2018-12-31T20:10:23.577Z,6.70
2018-12-31T20:12:52.176Z,6.60
2018-12-31T20:15:20.597Z,6.60
2018-12-31T20:17:49.466Z,6.70
2018-12-31T20:20:18.130Z,6.60
2018-12-31T20:22:46.644Z,6.60
2018-12-31T20:25:15.076Z,6.60
2018-12-31T20:27:43.569Z,6.60
2018-12-31T20:30:12.097Z,6.70
2018-12-31T20:32:40.582Z,6.70
2018-12-31T20:35:08.984Z,6.70
2018-12-31T20:37:37.417Z,6.70
2018-12-31T20:40:06.718Z,6.70
2018-12-31T20:42:35.206Z,6.70
2018-12-31T20:45:03.701Z,6.70
2018-12-31T20:47:32.101Z,6.70
2018-12-31T20:50:00.508Z,6.60
2018-12-31T20:52:29.237Z,6.60
2018-12-31T20:54:57.644Z,6.60
2018-12-31T20:57:26.061Z,6.70
2018-12-31T20:59:54.541Z,6.70
2018-12-31T21:02:23.067Z,6.70
2018-12-31T21:04:51.845Z,6.60
2018-12-31T21:07:20.322Z,6.70
2018-12-31T21:09:48.756Z,6.70
2018-12-31T21:12:17.176Z,6.70
2018-12-31T21:14:45.573Z,6.70
2018-12-31T21:17:13.991Z,6.70
2018-12-31T21:19:42.473Z,6.70
2018-12-31T21:22:10.897Z,6.60
2018-12-31T21:24:39.554Z,6.70
2018-12-31T21:27:07.988Z,6.70
2018-12-31T21:29:36.736Z,6.70
2018-12-31T21:32:05.170Z,6.70
2018-12-31T21:34:33.609Z,6.70
2018-12-31T21:37:02.009Z,6.70
2018-12-31T21:39:30.450Z,6.70
2018-12-31T21:41:59.152Z,6.70
2018-12-31T21:44:27.979Z,6.70
2018-12-31T21:46:56.381Z,6.60
2018-12-31T21:49:24.889Z,6.60
2018-12-31T21:51:53.325Z,6.60
2018-12-31T21:54:21.804Z,6.70
2018-12-31T21:56:50.284Z,6.60
2018-12-31T21:59:18.702Z,6.50
2018-12-31T22:01:47.109Z,6.50
2018-12-31T22:04:15.552Z,6.40
2018-12-31T22:06:44.006Z,6.40
2018-12-31T22:09:12.652Z,6.40
2018-12-31T22:11:42.289Z,6.50
2018-12-31T22:14:10.688Z,6.50
2018-12-31T22:16:39.125Z,6.50
2018-12-31T22:19:07.549Z,6.50
2018-12-31T22:21:36.334Z,6.40
2018-12-31T22:24:04.794Z,6.40
2018-12-31T22:26:33.211Z,6.40
2018-12-31T22:29:01.708Z,6.40
2018-12-31T22:31:30.135Z,6.40
2018-12-31T22:33:58.569Z,6.40
2018-12-31T22:36:46.589Z,6.40
2018-12-31T22:39:15.010Z,6.50
2018-12-31T22:41:43.450Z,6.50
2018-12-31T22:44:11.870Z,6.50
2018-12-31T22:46:40.277Z,6.50
2018-12-31T22:49:08.695Z,6.50
2018-12-31T22:51:37.104Z,6.50
2018-12-31T22:54:05.520Z,6.50
2018-12-31T22:56:33.974Z,6.50
2018-12-31T22:59:02.618Z,6.60
2018-12-31T23:01:31.714Z,6.60
2018-12-31T23:04:00.188Z,6.60
2018-12-31T23:06:28.611Z,6.70
2018-12-31T23:08:57.066Z,6.70
2018-12-31T23:11:25.501Z,6.60
2018-12-31T23:13:54.667Z,6.60
2018-12-31T23:16:23.144Z,6.60
2018-12-31T23:18:51.548Z,6.60
2018-12-31T23:21:20.019Z,6.60
2018-12-31T23:23:48.518Z,6.70
2018-12-31T23:26:16.974Z,6.70
2018-12-31T23:28:52.314Z,6.60
2018-12-31T23:31:15.815Z,6.60
2018-12-31T23:33:44.221Z,6.70
2018-12-31T23:36:12.649Z,6.70
2018-12-31T23:38:41.086Z,6.70
2018-12-31T23:41:09.751Z,6.70
2018-12-31T23:43:38.199Z,6.70
2018-12-31T23:46:06.723Z,6.70
2018-12-31T23:48:35.197Z,6.70
2018-12-31T23:51:03.664Z,6.70
2018-12-31T23:53:32.483Z,6.70
2018-12-31T23:56:00.945Z,6.70
2018-12-31T23:58:29.704Z,6.70
